sensor_id;sensor_type;location;lat;lon;timestamp;P1;durP1;ratioP1;P2;durP2;ratioP2
38797;SDS011;24546;52.240;16.826;2022-10-26T00:04:43;18.35;;;12.80;;
38797;SDS011;24546;52.240;16.826;2022-10-26T00:09:44;18.17;;;13.55;;
38797;SDS011;24546;52.240;16.826;2022-10-26T00:14:45;20.77;;;13.43;;
38797;SDS011;24546;52.240;16.826;2022-10-26T00:19:47;16.98;;;11.70;;
38797;SDS011;24546;52.240;16.826;2022-10-26T00:24:48;21.67;;;13.80;;
38797;SDS011;24546;52.240;16.826;2022-10-26T00:29:49;19.05;;;13.73;;
38797;SDS011;24546;52.240;16.826;2022-10-26T00:34:50;19.02;;;13.85;;
38797;SDS011;24546;52.240;16.826;2022-10-26T00:39:51;23.65;;;15.07;;
38797;SDS011;24546;52.240;16.826;2022-10-26T00:44:56;19.35;;;12.73;;
38797;SDS011;24546;52.240;16.826;2022-10-26T00:50:06;20.67;;;12.88;;
38797;SDS011;24546;52.240;16.826;2022-10-26T00:55:10;29.10;;;16.30;;
38797;SDS011;24546;52.240;16.826;2022-10-26T01:00:12;20.90;;;13.65;;
38797;SDS011;24546;52.240;16.826;2022-10-26T01:05:13;27.52;;;13.27;;
38797;SDS011;24546;52.240;16.826;2022-10-26T01:10:16;20.25;;;12.18;;
38797;SDS011;24546;52.240;16.826;2022-10-26T01:15:18;19.88;;;11.35;;
38797;SDS011;24546;52.240;16.826;2022-10-26T01:26:37;23.25;;;13.68;;
38797;SDS011;24546;52.240;16.826;2022-10-26T01:31:54;24.13;;;13.35;;
38797;SDS011;24546;52.240;16.826;2022-10-26T01:37:09;19.83;;;11.20;;
38797;SDS011;24546;52.240;16.826;2022-10-26T01:42:13;24.08;;;13.23;;
38797;SDS011;24546;52.240;16.826;2022-10-26T01:47:16;28.48;;;14.77;;
38797;SDS011;24546;52.240;16.826;2022-10-26T01:52:20;18.92;;;12.95;;
38797;SDS011;24546;52.240;16.826;2022-10-26T01:57:22;18.35;;;12.88;;
38797;SDS011;24546;52.240;16.826;2022-10-26T02:23:44;16.58;;;11.55;;
38797;SDS011;24546;52.240;16.826;2022-10-26T02:28:47;17.17;;;10.52;;
38797;SDS011;24546;52.240;16.826;2022-10-26T02:33:50;20.48;;;11.55;;
38797;SDS011;24546;52.240;16.826;2022-10-26T02:38:55;15.07;;;9.48;;
38797;SDS011;24546;52.240;16.826;2022-10-26T02:44:12;21.88;;;10.55;;
38797;SDS011;24546;52.240;16.826;2022-10-26T02:49:18;18.63;;;11.38;;
38797;SDS011;24546;52.240;16.826;2022-10-26T03:00:00;18.65;;;11.13;;
38797;SDS011;24546;52.240;16.826;2022-10-26T03:05:06;17.35;;;10.80;;
38797;SDS011;24546;52.240;16.826;2022-10-26T03:10:17;16.60;;;10.65;;
38797;SDS011;24546;52.240;16.826;2022-10-26T03:15:18;19.63;;;11.95;;
38797;SDS011;24546;52.240;16.826;2022-10-26T03:20:25;19.60;;;11.70;;
38797;SDS011;24546;52.240;16.826;2022-10-26T03:25:26;18.77;;;11.02;;
38797;SDS011;24546;52.240;16.826;2022-10-26T03:30:28;16.63;;;11.20;;
38797;SDS011;24546;52.240;16.826;2022-10-26T03:35:30;14.45;;;10.00;;
38797;SDS011;24546;52.240;16.826;2022-10-26T03:40:31;15.70;;;10.60;;
38797;SDS011;24546;52.240;16.826;2022-10-26T03:45:32;13.68;;;8.98;;
38797;SDS011;24546;52.240;16.826;2022-10-26T03:50:33;13.32;;;9.38;;
38797;SDS011;24546;52.240;16.826;2022-10-26T03:55:34;15.15;;;9.70;;
38797;SDS011;24546;52.240;16.826;2022-10-26T04:00:35;14.23;;;10.05;;
38797;SDS011;24546;52.240;16.826;2022-10-26T04:05:36;18.42;;;10.75;;
38797;SDS011;24546;52.240;16.826;2022-10-26T04:10:37;18.02;;;11.52;;
38797;SDS011;24546;52.240;16.826;2022-10-26T04:15:39;18.55;;;11.57;;
38797;SDS011;24546;52.240;16.826;2022-10-26T04:20:40;16.08;;;10.45;;
38797;SDS011;24546;52.240;16.826;2022-10-26T04:25:41;23.40;;;11.63;;
38797;SDS011;24546;52.240;16.826;2022-10-26T04:30:43;20.52;;;12.43;;
38797;SDS011;24546;52.240;16.826;2022-10-26T04:35:44;18.13;;;12.13;;
38797;SDS011;24546;52.240;16.826;2022-10-26T04:40:45;19.63;;;11.45;;
38797;SDS011;24546;52.240;16.826;2022-10-26T04:45:53;41.22;;;15.07;;
38797;SDS011;24546;52.240;16.826;2022-10-26T04:50:58;19.00;;;11.05;;
38797;SDS011;24546;52.240;16.826;2022-10-26T04:56:07;16.25;;;11.30;;
38797;SDS011;24546;52.240;16.826;2022-10-26T05:01:08;20.35;;;13.52;;
38797;SDS011;24546;52.240;16.826;2022-10-26T05:06:09;19.15;;;11.57;;
38797;SDS011;24546;52.240;16.826;2022-10-26T05:11:10;28.25;;;12.98;;
38797;SDS011;24546;52.240;16.826;2022-10-26T05:16:11;25.27;;;12.50;;
38797;SDS011;24546;52.240;16.826;2022-10-26T05:21:13;19.65;;;12.43;;
38797;SDS011;24546;52.240;16.826;2022-10-26T05:26:18;18.92;;;12.68;;
38797;SDS011;24546;52.240;16.826;2022-10-26T05:31:19;18.10;;;10.90;;
38797;SDS011;24546;52.240;16.826;2022-10-26T05:36:21;17.30;;;11.75;;
38797;SDS011;24546;52.240;16.826;2022-10-26T05:41:22;16.75;;;11.55;;
38797;SDS011;24546;52.240;16.826;2022-10-26T05:46:23;22.15;;;13.65;;
38797;SDS011;24546;52.240;16.826;2022-10-26T05:51:23;23.42;;;12.88;;
38797;SDS011;24546;52.240;16.826;2022-10-26T06:07:24;36.30;;;16.98;;
38797;SDS011;24546;52.240;16.826;2022-10-26T06:12:26;29.00;;;15.80;;
38797;SDS011;24546;52.240;16.826;2022-10-26T06:28:07;29.48;;;19.40;;
38797;SDS011;24546;52.240;16.826;2022-10-26T06:33:23;31.33;;;17.83;;
38797;SDS011;24546;52.240;16.826;2022-10-26T06:38:26;65.80;;;23.52;;
38797;SDS011;24546;52.240;16.826;2022-10-26T06:43:31;47.22;;;20.23;;
38797;SDS011;24546;52.240;16.826;2022-10-26T06:53:59;35.80;;;20.92;;
38797;SDS011;24546;52.240;16.826;2022-10-26T06:59:13;29.52;;;18.77;;
38797;SDS011;24546;52.240;16.826;2022-10-26T07:04:22;32.25;;;21.63;;
38797;SDS011;24546;52.240;16.826;2022-10-26T07:09:23;32.13;;;20.20;;
38797;SDS011;24546;52.240;16.826;2022-10-26T07:14:27;35.72;;;19.77;;
38797;SDS011;24546;52.240;16.826;2022-10-26T07:19:31;37.63;;;21.40;;
38797;SDS011;24546;52.240;16.826;2022-10-26T07:24:32;28.33;;;20.20;;
38797;SDS011;24546;52.240;16.826;2022-10-26T07:29:34;26.13;;;17.70;;
38797;SDS011;24546;52.240;16.826;2022-10-26T07:34:35;27.15;;;19.52;;
38797;SDS011;24546;52.240;16.826;2022-10-26T07:39:36;36.72;;;21.33;;
38797;SDS011;24546;52.240;16.826;2022-10-26T07:44:38;28.08;;;19.25;;
38797;SDS011;24546;52.240;16.826;2022-10-26T07:49:41;31.38;;;22.38;;
38797;SDS011;24546;52.240;16.826;2022-10-26T07:54:42;29.25;;;19.55;;
38797;SDS011;24546;52.240;16.826;2022-10-26T07:59:43;25.90;;;19.27;;
38797;SDS011;24546;52.240;16.826;2022-10-26T08:04:44;26.25;;;19.92;;
38797;SDS011;24546;52.240;16.826;2022-10-26T08:09:45;26.25;;;19.52;;
38797;SDS011;24546;52.240;16.826;2022-10-26T08:14:46;28.95;;;20.73;;
38797;SDS011;24546;52.240;16.826;2022-10-26T08:19:47;27.25;;;19.60;;
38797;SDS011;24546;52.240;16.826;2022-10-26T08:24:51;22.25;;;16.85;;
38797;SDS011;24546;52.240;16.826;2022-10-26T08:29:52;25.80;;;19.05;;
38797;SDS011;24546;52.240;16.826;2022-10-26T08:34:53;22.40;;;16.90;;
38797;SDS011;24546;52.240;16.826;2022-10-26T08:39:54;20.52;;;15.65;;
38797;SDS011;24546;52.240;16.826;2022-10-26T08:44:56;19.45;;;14.95;;
38797;SDS011;24546;52.240;16.826;2022-10-26T08:50:13;18.45;;;13.88;;
38797;SDS011;24546;52.240;16.826;2022-10-26T08:55:24;22.58;;;15.73;;
38797;SDS011;24546;52.240;16.826;2022-10-26T09:00:32;18.63;;;15.60;;
38797;SDS011;24546;52.240;16.826;2022-10-26T09:06:00;17.35;;;14.10;;
38797;SDS011;24546;52.240;16.826;2022-10-26T09:16:22;20.15;;;13.35;;
38797;SDS011;24546;52.240;16.826;2022-10-26T09:27:01;18.25;;;13.95;;
38797;SDS011;24546;52.240;16.826;2022-10-26T09:32:08;16.55;;;13.07;;
38797;SDS011;24546;52.240;16.826;2022-10-26T09:37:19;18.33;;;13.95;;
38797;SDS011;24546;52.240;16.826;2022-10-26T09:42:36;16.33;;;13.38;;
38797;SDS011;24546;52.240;16.826;2022-10-26T09:47:38;16.13;;;13.20;;
38797;SDS011;24546;52.240;16.826;2022-10-26T09:52:44;17.00;;;10.90;;
38797;SDS011;24546;52.240;16.826;2022-10-26T09:57:45;15.55;;;11.75;;
38797;SDS011;24546;52.240;16.826;2022-10-26T10:02:54;13.80;;;10.43;;
38797;SDS011;24546;52.240;16.826;2022-10-26T10:08:17;13.70;;;9.85;;
38797;SDS011;24546;52.240;16.826;2022-10-26T10:13:21;13.30;;;9.43;;
38797;SDS011;24546;52.240;16.826;2022-10-26T10:18:24;12.60;;;10.40;;
38797;SDS011;24546;52.240;16.826;2022-10-26T10:28:33;14.13;;;9.38;;
38797;SDS011;24546;52.240;16.826;2022-10-26T10:33:38;12.82;;;10.15;;
38797;SDS011;24546;52.240;16.826;2022-10-26T10:38:42;15.48;;;8.80;;
38797;SDS011;24546;52.240;16.826;2022-10-26T10:43:46;11.90;;;9.57;;
38797;SDS011;24546;52.240;16.826;2022-10-26T10:49:05;12.40;;;9.50;;
38797;SDS011;24546;52.240;16.826;2022-10-26T10:54:19;14.40;;;9.45;;
38797;SDS011;24546;52.240;16.826;2022-10-26T11:10:07;15.15;;;9.35;;
38797;SDS011;24546;52.240;16.826;2022-10-26T11:15:19;13.02;;;8.43;;
38797;SDS011;24546;52.240;16.826;2022-10-26T11:20:24;14.07;;;7.57;;
38797;SDS011;24546;52.240;16.826;2022-10-26T11:25:43;11.63;;;7.80;;
38797;SDS011;24546;52.240;16.826;2022-10-26T11:31:09;9.27;;;6.73;;
38797;SDS011;24546;52.240;16.826;2022-10-26T11:36:18;13.18;;;7.03;;
38797;SDS011;24546;52.240;16.826;2022-10-26T11:41:23;9.40;;;6.68;;
38797;SDS011;24546;52.240;16.826;2022-10-26T11:46:33;12.68;;;6.75;;
38797;SDS011;24546;52.240;16.826;2022-10-26T11:51:48;12.55;;;6.72;;
38797;SDS011;24546;52.240;16.826;2022-10-26T11:56:55;10.43;;;6.63;;
38797;SDS011;24546;52.240;16.826;2022-10-26T12:02:19;9.27;;;6.47;;
38797;SDS011;24546;52.240;16.826;2022-10-26T12:07:29;9.35;;;6.85;;
38797;SDS011;24546;52.240;16.826;2022-10-26T12:12:38;9.38;;;6.70;;
38797;SDS011;24546;52.240;16.826;2022-10-26T12:17:51;10.88;;;7.05;;
38797;SDS011;24546;52.240;16.826;2022-10-26T12:23:04;8.80;;;7.10;;
38797;SDS011;24546;52.240;16.826;2022-10-26T12:33:49;10.38;;;6.65;;
38797;SDS011;24546;52.240;16.826;2022-10-26T12:38:55;10.50;;;5.55;;
38797;SDS011;24546;52.240;16.826;2022-10-26T12:43:57;8.35;;;6.10;;
38797;SDS011;24546;52.240;16.826;2022-10-26T12:49:07;9.65;;;5.88;;
38797;SDS011;24546;52.240;16.826;2022-10-26T12:54:48;7.18;;;5.53;;
38797;SDS011;24546;52.240;16.826;2022-10-26T13:00:12;8.63;;;5.18;;
38797;SDS011;24546;52.240;16.826;2022-10-26T13:10:20;8.73;;;5.22;;
38797;SDS011;24546;52.240;16.826;2022-10-26T13:20:31;9.52;;;5.63;;
38797;SDS011;24546;52.240;16.826;2022-10-26T13:25:33;10.60;;;5.40;;
38797;SDS011;24546;52.240;16.826;2022-10-26T13:30:43;11.57;;;4.55;;
38797;SDS011;24546;52.240;16.826;2022-10-26T13:35:46;8.82;;;6.22;;
38797;SDS011;24546;52.240;16.826;2022-10-26T13:40:51;9.20;;;4.70;;
38797;SDS011;24546;52.240;16.826;2022-10-26T13:46:02;7.70;;;5.28;;
38797;SDS011;24546;52.240;16.826;2022-10-26T13:51:39;6.85;;;5.75;;
38797;SDS011;24546;52.240;16.826;2022-10-26T13:56:47;8.43;;;4.13;;
38797;SDS011;24546;52.240;16.826;2022-10-26T14:02:18;5.60;;;3.55;;
38797;SDS011;24546;52.240;16.826;2022-10-26T14:07:21;8.80;;;3.40;;
38797;SDS011;24546;52.240;16.826;2022-10-26T14:12:25;6.80;;;3.30;;
38797;SDS011;24546;52.240;16.826;2022-10-26T14:17:28;8.60;;;4.50;;
38797;SDS011;24546;52.240;16.826;2022-10-26T14:22:29;5.45;;;3.28;;
38797;SDS011;24546;52.240;16.826;2022-10-26T14:27:31;5.97;;;3.42;;
38797;SDS011;24546;52.240;16.826;2022-10-26T14:32:37;7.43;;;4.22;;
38797;SDS011;24546;52.240;16.826;2022-10-26T14:37:41;7.30;;;4.03;;
38797;SDS011;24546;52.240;16.826;2022-10-26T14:42:53;6.85;;;4.20;;
38797;SDS011;24546;52.240;16.826;2022-10-26T14:47:56;8.05;;;3.80;;
38797;SDS011;24546;52.240;16.826;2022-10-26T14:53:14;6.15;;;3.95;;
38797;SDS011;24546;52.240;16.826;2022-10-26T14:58:22;7.35;;;4.93;;
38797;SDS011;24546;52.240;16.826;2022-10-26T15:03:28;10.65;;;3.70;;
38797;SDS011;24546;52.240;16.826;2022-10-26T15:08:39;8.25;;;3.90;;
38797;SDS011;24546;52.240;16.826;2022-10-26T15:13:41;5.40;;;3.47;;
38797;SDS011;24546;52.240;16.826;2022-10-26T15:18:44;8.32;;;3.75;;
38797;SDS011;24546;52.240;16.826;2022-10-26T15:23:46;7.57;;;4.20;;
38797;SDS011;24546;52.240;16.826;2022-10-26T15:28:50;9.85;;;4.75;;
38797;SDS011;24546;52.240;16.826;2022-10-26T15:38:56;6.47;;;4.38;;
38797;SDS011;24546;52.240;16.826;2022-10-26T15:43:59;4.65;;;4.20;;
38797;SDS011;24546;52.240;16.826;2022-10-26T15:49:05;7.90;;;5.25;;
38797;SDS011;24546;52.240;16.826;2022-10-26T15:54:08;6.63;;;4.78;;
38797;SDS011;24546;52.240;16.826;2022-10-26T15:59:16;5.88;;;4.72;;
38797;SDS011;24546;52.240;16.826;2022-10-26T16:04:17;8.40;;;5.88;;
38797;SDS011;24546;52.240;16.826;2022-10-26T16:09:21;11.63;;;5.90;;
38797;SDS011;24546;52.240;16.826;2022-10-26T16:14:24;7.87;;;5.30;;
38797;SDS011;24546;52.240;16.826;2022-10-26T16:19:25;16.38;;;6.63;;
38797;SDS011;24546;52.240;16.826;2022-10-26T16:24:27;10.77;;;5.82;;
38797;SDS011;24546;52.240;16.826;2022-10-26T16:29:31;8.85;;;6.07;;
38797;SDS011;24546;52.240;16.826;2022-10-26T16:34:34;10.30;;;6.80;;
38797;SDS011;24546;52.240;16.826;2022-10-26T16:39:35;12.35;;;9.48;;
38797;SDS011;24546;52.240;16.826;2022-10-26T16:44:36;14.25;;;9.68;;
38797;SDS011;24546;52.240;16.826;2022-10-26T16:49:37;12.23;;;7.45;;
38797;SDS011;24546;52.240;16.826;2022-10-26T16:54:42;12.43;;;9.45;;
38797;SDS011;24546;52.240;16.826;2022-10-26T16:59:43;35.55;;;23.13;;
38797;SDS011;24546;52.240;16.826;2022-10-26T17:04:44;65.72;;;37.38;;
38797;SDS011;24546;52.240;16.826;2022-10-26T17:09:45;63.05;;;38.22;;
38797;SDS011;24546;52.240;16.826;2022-10-26T17:14:47;61.90;;;37.78;;
38797;SDS011;24546;52.240;16.826;2022-10-26T17:19:47;170.10;;;80.97;;
38797;SDS011;24546;52.240;16.826;2022-10-26T17:24:49;64.20;;;36.50;;
38797;SDS011;24546;52.240;16.826;2022-10-26T17:29:50;46.58;;;28.52;;
38797;SDS011;24546;52.240;16.826;2022-10-26T17:34:51;52.33;;;33.50;;
38797;SDS011;24546;52.240;16.826;2022-10-26T17:39:52;39.70;;;27.42;;
38797;SDS011;24546;52.240;16.826;2022-10-26T17:44:54;35.25;;;24.48;;
38797;SDS011;24546;52.240;16.826;2022-10-26T17:49:55;43.30;;;31.88;;
38797;SDS011;24546;52.240;16.826;2022-10-26T17:54:57;37.60;;;25.05;;
38797;SDS011;24546;52.240;16.826;2022-10-26T17:59:58;31.02;;;24.05;;
38797;SDS011;24546;52.240;16.826;2022-10-26T18:05:00;30.77;;;22.13;;
38797;SDS011;24546;52.240;16.826;2022-10-26T18:10:01;24.95;;;18.85;;
38797;SDS011;24546;52.240;16.826;2022-10-26T18:15:06;27.58;;;21.77;;
38797;SDS011;24546;52.240;16.826;2022-10-26T18:20:08;25.20;;;19.80;;
38797;SDS011;24546;52.240;16.826;2022-10-26T18:25:09;30.30;;;20.83;;
38797;SDS011;24546;52.240;16.826;2022-10-26T18:30:11;49.25;;;28.65;;
38797;SDS011;24546;52.240;16.826;2022-10-26T18:35:12;53.80;;;30.63;;
38797;SDS011;24546;52.240;16.826;2022-10-26T18:40:14;49.05;;;28.77;;
38797;SDS011;24546;52.240;16.826;2022-10-26T18:45:15;41.47;;;28.33;;
38797;SDS011;24546;52.240;16.826;2022-10-26T18:50:17;45.10;;;29.52;;
38797;SDS011;24546;52.240;16.826;2022-10-26T18:55:18;46.30;;;31.20;;
38797;SDS011;24546;52.240;16.826;2022-10-26T19:00:20;42.53;;;27.55;;
38797;SDS011;24546;52.240;16.826;2022-10-26T19:05:22;38.67;;;26.25;;
38797;SDS011;24546;52.240;16.826;2022-10-26T19:10:27;41.55;;;28.20;;
38797;SDS011;24546;52.240;16.826;2022-10-26T19:15:28;45.63;;;29.70;;
38797;SDS011;24546;52.240;16.826;2022-10-26T19:20:30;34.95;;;23.85;;
38797;SDS011;24546;52.240;16.826;2022-10-26T19:25:31;34.80;;;23.27;;
38797;SDS011;24546;52.240;16.826;2022-10-26T19:30:31;36.08;;;25.30;;
38797;SDS011;24546;52.240;16.826;2022-10-26T19:35:33;35.50;;;23.90;;
38797;SDS011;24546;52.240;16.826;2022-10-26T19:40:34;35.85;;;24.55;;
38797;SDS011;24546;52.240;16.826;2022-10-26T19:45:35;37.45;;;25.30;;
38797;SDS011;24546;52.240;16.826;2022-10-26T19:50:36;28.77;;;22.35;;
38797;SDS011;24546;52.240;16.826;2022-10-26T19:55:41;31.60;;;21.23;;
38797;SDS011;24546;52.240;16.826;2022-10-26T20:00:45;28.63;;;20.58;;
38797;SDS011;24546;52.240;16.826;2022-10-26T20:05:46;26.08;;;19.50;;
38797;SDS011;24546;52.240;16.826;2022-10-26T20:10:47;30.13;;;19.75;;
38797;SDS011;24546;52.240;16.826;2022-10-26T20:15:49;29.50;;;21.33;;
38797;SDS011;24546;52.240;16.826;2022-10-26T20:20:51;32.28;;;20.67;;
38797;SDS011;24546;52.240;16.826;2022-10-26T20:25:51;28.52;;;19.40;;
38797;SDS011;24546;52.240;16.826;2022-10-26T20:30:52;26.92;;;17.92;;
38797;SDS011;24546;52.240;16.826;2022-10-26T20:35:56;28.08;;;20.52;;
38797;SDS011;24546;52.240;16.826;2022-10-26T20:40:58;30.45;;;20.80;;
38797;SDS011;24546;52.240;16.826;2022-10-26T20:46:05;33.10;;;22.88;;
38797;SDS011;24546;52.240;16.826;2022-10-26T20:51:18;35.33;;;23.17;;
38797;SDS011;24546;52.240;16.826;2022-10-26T20:56:24;31.60;;;20.65;;
38797;SDS011;24546;52.240;16.826;2022-10-26T21:01:30;34.88;;;22.95;;
38797;SDS011;24546;52.240;16.826;2022-10-26T21:06:37;27.25;;;19.55;;
38797;SDS011;24546;52.240;16.826;2022-10-26T21:11:41;31.83;;;21.05;;
38797;SDS011;24546;52.240;16.826;2022-10-26T21:16:42;44.63;;;26.95;;
38797;SDS011;24546;52.240;16.826;2022-10-26T21:21:43;34.00;;;23.75;;
38797;SDS011;24546;52.240;16.826;2022-10-26T21:26:44;35.38;;;25.38;;
38797;SDS011;24546;52.240;16.826;2022-10-26T21:31:45;37.35;;;24.58;;
38797;SDS011;24546;52.240;16.826;2022-10-26T21:36:46;50.53;;;27.38;;
38797;SDS011;24546;52.240;16.826;2022-10-26T21:41:47;38.63;;;26.67;;
38797;SDS011;24546;52.240;16.826;2022-10-26T21:46:48;40.22;;;27.00;;
38797;SDS011;24546;52.240;16.826;2022-10-26T21:51:49;50.15;;;30.38;;
38797;SDS011;24546;52.240;16.826;2022-10-26T21:56:50;39.10;;;26.42;;
38797;SDS011;24546;52.240;16.826;2022-10-26T22:01:51;41.70;;;27.90;;
38797;SDS011;24546;52.240;16.826;2022-10-26T22:06:52;44.72;;;29.25;;
38797;SDS011;24546;52.240;16.826;2022-10-26T22:11:53;41.83;;;29.90;;
38797;SDS011;24546;52.240;16.826;2022-10-26T22:16:57;43.13;;;27.98;;
38797;SDS011;24546;52.240;16.826;2022-10-26T22:21:58;45.95;;;31.10;;
38797;SDS011;24546;52.240;16.826;2022-10-26T22:26:59;43.05;;;28.95;;
38797;SDS011;24546;52.240;16.826;2022-10-26T22:32:00;45.53;;;29.35;;
38797;SDS011;24546;52.240;16.826;2022-10-26T22:37:03;47.03;;;31.45;;
38797;SDS011;24546;52.240;16.826;2022-10-26T22:42:04;49.13;;;32.33;;
38797;SDS011;24546;52.240;16.826;2022-10-26T22:47:05;56.55;;;34.30;;
38797;SDS011;24546;52.240;16.826;2022-10-26T22:52:06;49.38;;;29.95;;
38797;SDS011;24546;52.240;16.826;2022-10-26T22:57:07;38.80;;;26.05;;
38797;SDS011;24546;52.240;16.826;2022-10-26T23:02:08;43.45;;;29.02;;
38797;SDS011;24546;52.240;16.826;2022-10-26T23:07:09;43.83;;;29.38;;
38797;SDS011;24546;52.240;16.826;2022-10-26T23:12:09;47.78;;;29.60;;
38797;SDS011;24546;52.240;16.826;2022-10-26T23:17:11;56.65;;;35.63;;
38797;SDS011;24546;52.240;16.826;2022-10-26T23:22:11;54.40;;;36.97;;
38797;SDS011;24546;52.240;16.826;2022-10-26T23:27:12;69.78;;;44.50;;
38797;SDS011;24546;52.240;16.826;2022-10-26T23:32:13;90.82;;;53.05;;
38797;SDS011;24546;52.240;16.826;2022-10-26T23:37:14;103.15;;;57.03;;
38797;SDS011;24546;52.240;16.826;2022-10-26T23:42:18;114.15;;;62.25;;
38797;SDS011;24546;52.240;16.826;2022-10-26T23:47:19;118.07;;;68.25;;
38797;SDS011;24546;52.240;16.826;2022-10-26T23:52:20;116.30;;;70.00;;
38797;SDS011;24546;52.240;16.826;2022-10-26T23:57:21;107.82;;;63.05;;
